sensor_id;sensor_type;location;lat;lon;timestamp;temperature;humidity
71672;DHT22;67659;45.554;11.812;2024-02-26T00:01:44;8.40;99.90
71672;DHT22;67659;45.554;11.812;2024-02-26T00:04:12;8.40;99.90
71672;DHT22;67659;45.554;11.812;2024-02-26T00:06:41;8.50;99.90
71672;DHT22;67659;45.554;11.812;2024-02-26T00:09:07;8.50;99.90
71672;DHT22;67659;45.554;11.812;2024-02-26T00:11:35;8.40;99.90
71672;DHT22;67659;45.554;11.812;2024-02-26T00:14:00;8.30;99.90
71672;DHT22;67659;45.554;11.812;2024-02-26T00:16:26;8.30;99.90
71672;DHT22;67659;45.554;11.812;2024-02-26T00:18:52;8.40;99.90
71672;DHT22;67659;45.554;11.812;2024-02-26T00:21:18;8.20;99.90
71672;DHT22;67659;45.554;11.812;2024-02-26T00:23:44;8.30;99.90
71672;DHT22;67659;45.554;11.812;2024-02-26T00:26:10;8.20;99.90
71672;DHT22;67659;45.554;11.812;2024-02-26T00:28:36;8.30;99.90
71672;DHT22;67659;45.554;11.812;2024-02-26T00:31:02;8.30;99.90
71672;DHT22;67659;45.554;11.812;2024-02-26T00:33:28;8.10;99.90
71672;DHT22;67659;45.554;11.812;2024-02-26T00:35:54;8.00;99.90
71672;DHT22;67659;45.554;11.812;2024-02-26T00:38:20;7.90;99.90
71672;DHT22;67659;45.554;11.812;2024-02-26T00:40:46;8.00;99.90
71672;DHT22;67659;45.554;11.812;2024-02-26T00:43:12;7.90;99.90
71672;DHT22;67659;45.554;11.812;2024-02-26T00:45:38;8.00;99.90
71672;DHT22;67659;45.554;11.812;2024-02-26T00:48:04;8.00;99.90
71672;DHT22;67659;45.554;11.812;2024-02-26T00:50:31;8.10;99.90
71672;DHT22;67659;45.554;11.812;2024-02-26T00:52:57;8.20;99.90
71672;DHT22;67659;45.554;11.812;2024-02-26T00:55:23;8.20;99.90
71672;DHT22;67659;45.554;11.812;2024-02-26T00:57:49;8.30;99.90
71672;DHT22;67659;45.554;11.812;2024-02-26T01:00:16;8.20;99.90
71672;DHT22;67659;45.554;11.812;2024-02-26T01:02:42;8.20;99.90
71672;DHT22;67659;45.554;11.812;2024-02-26T01:05:08;8.10;99.90
71672;DHT22;67659;45.554;11.812;2024-02-26T01:07:37;8.00;99.90
71672;DHT22;67659;45.554;11.812;2024-02-26T01:10:03;7.80;99.90
71672;DHT22;67659;45.554;11.812;2024-02-26T01:12:29;7.70;99.90
71672;DHT22;67659;45.554;11.812;2024-02-26T01:14:55;7.50;99.90
71672;DHT22;67659;45.554;11.812;2024-02-26T01:17:21;7.60;99.90
71672;DHT22;67659;45.554;11.812;2024-02-26T01:19:47;7.70;99.90
71672;DHT22;67659;45.554;11.812;2024-02-26T01:22:13;7.70;99.90
71672;DHT22;67659;45.554;11.812;2024-02-26T01:24:39;7.80;99.90
71672;DHT22;67659;45.554;11.812;2024-02-26T01:27:05;7.90;99.90
71672;DHT22;67659;45.554;11.812;2024-02-26T01:29:32;7.80;99.90
71672;DHT22;67659;45.554;11.812;2024-02-26T01:31:57;7.80;99.90
71672;DHT22;67659;45.554;11.812;2024-02-26T01:34:23;7.90;99.90
71672;DHT22;67659;45.554;11.812;2024-02-26T01:36:49;7.80;99.90
71672;DHT22;67659;45.554;11.812;2024-02-26T01:39:15;7.90;99.90
71672;DHT22;67659;45.554;11.812;2024-02-26T01:41:41;8.00;99.90
71672;DHT22;67659;45.554;11.812;2024-02-26T01:44:07;8.00;99.90
71672;DHT22;67659;45.554;11.812;2024-02-26T01:46:35;8.00;99.90
71672;DHT22;67659;45.554;11.812;2024-02-26T01:49:02;8.10;99.90
71672;DHT22;67659;45.554;11.812;2024-02-26T01:51:29;8.00;99.90
71672;DHT22;67659;45.554;11.812;2024-02-26T01:53:57;8.10;99.90
71672;DHT22;67659;45.554;11.812;2024-02-26T01:56:24;8.20;99.90
71672;DHT22;67659;45.554;11.812;2024-02-26T01:58:56;8.10;99.90
71672;DHT22;67659;45.554;11.812;2024-02-26T02:01:24;8.30;99.90
71672;DHT22;67659;45.554;11.812;2024-02-26T02:03:51;8.50;99.90
71672;DHT22;67659;45.554;11.812;2024-02-26T02:06:17;8.40;99.90
71672;DHT22;67659;45.554;11.812;2024-02-26T02:08:44;8.40;99.90
71672;DHT22;67659;45.554;11.812;2024-02-26T02:11:10;8.50;99.90
71672;DHT22;67659;45.554;11.812;2024-02-26T02:13:40;8.50;99.90
71672;DHT22;67659;45.554;11.812;2024-02-26T02:16:07;8.60;99.90
71672;DHT22;67659;45.554;11.812;2024-02-26T02:18:33;8.50;99.90
71672;DHT22;67659;45.554;11.812;2024-02-26T02:21:02;8.40;99.90
71672;DHT22;67659;45.554;11.812;2024-02-26T02:23:28;8.50;99.90
71672;DHT22;67659;45.554;11.812;2024-02-26T02:25:56;8.50;99.90
71672;DHT22;67659;45.554;11.812;2024-02-26T02:28:23;8.40;99.90
71672;DHT22;67659;45.554;11.812;2024-02-26T02:30:51;8.30;99.90
71672;DHT22;67659;45.554;11.812;2024-02-26T02:33:17;8.20;99.90
71672;DHT22;67659;45.554;11.812;2024-02-26T02:35:43;8.20;99.90
71672;DHT22;67659;45.554;11.812;2024-02-26T02:38:09;8.10;99.90
71672;DHT22;67659;45.554;11.812;2024-02-26T02:40:35;7.80;99.90
71672;DHT22;67659;45.554;11.812;2024-02-26T02:43:01;7.90;99.90
71672;DHT22;67659;45.554;11.812;2024-02-26T02:45:28;7.90;99.90
71672;DHT22;67659;45.554;11.812;2024-02-26T02:47:54;7.80;99.90
71672;DHT22;67659;45.554;11.812;2024-02-26T02:50:20;7.90;99.90
71672;DHT22;67659;45.554;11.812;2024-02-26T02:52:46;7.80;99.90
71672;DHT22;67659;45.554;11.812;2024-02-26T02:55:13;7.80;99.90
71672;DHT22;67659;45.554;11.812;2024-02-26T02:57:39;7.90;99.90
71672;DHT22;67659;45.554;11.812;2024-02-26T03:00:09;7.70;99.90
71672;DHT22;67659;45.554;11.812;2024-02-26T03:02:35;7.80;99.90
71672;DHT22;67659;45.554;11.812;2024-02-26T03:05:04;7.60;99.90
71672;DHT22;67659;45.554;11.812;2024-02-26T03:07:30;7.60;99.90
71672;DHT22;67659;45.554;11.812;2024-02-26T03:09:56;7.60;99.90
71672;DHT22;67659;45.554;11.812;2024-02-26T03:12:26;7.50;99.90
71672;DHT22;67659;45.554;11.812;2024-02-26T03:14:56;7.50;99.90
71672;DHT22;67659;45.554;11.812;2024-02-26T03:17:24;7.30;99.90
71672;DHT22;67659;45.554;11.812;2024-02-26T03:19:50;7.30;99.90
71672;DHT22;67659;45.554;11.812;2024-02-26T03:22:19;7.10;99.90
71672;DHT22;67659;45.554;11.812;2024-02-26T03:24:47;7.20;99.90
71672;DHT22;67659;45.554;11.812;2024-02-26T03:27:14;7.10;99.90
71672;DHT22;67659;45.554;11.812;2024-02-26T03:29:41;7.20;99.90
71672;DHT22;67659;45.554;11.812;2024-02-26T03:32:07;7.10;99.90
71672;DHT22;67659;45.554;11.812;2024-02-26T03:34:34;7.10;99.90
71672;DHT22;67659;45.554;11.812;2024-02-26T03:37:01;7.00;99.90
71672;DHT22;67659;45.554;11.812;2024-02-26T03:39:27;7.10;99.90
71672;DHT22;67659;45.554;11.812;2024-02-26T03:41:54;7.10;99.90
71672;DHT22;67659;45.554;11.812;2024-02-26T03:44:21;7.20;99.90
71672;DHT22;67659;45.554;11.812;2024-02-26T03:46:48;7.00;99.90
71672;DHT22;67659;45.554;11.812;2024-02-26T03:49:15;6.50;99.90
71672;DHT22;67659;45.554;11.812;2024-02-26T03:51:42;6.40;99.90
71672;DHT22;67659;45.554;11.812;2024-02-26T03:54:08;6.10;99.90
71672;DHT22;67659;45.554;11.812;2024-02-26T03:56:34;6.10;99.90
71672;DHT22;67659;45.554;11.812;2024-02-26T03:59:02;6.20;99.90
71672;DHT22;67659;45.554;11.812;2024-02-26T04:01:28;6.50;99.90
71672;DHT22;67659;45.554;11.812;2024-02-26T04:03:55;6.30;99.90
71672;DHT22;67659;45.554;11.812;2024-02-26T04:06:22;6.50;99.90
71672;DHT22;67659;45.554;11.812;2024-02-26T04:08:48;6.60;99.90
71672;DHT22;67659;45.554;11.812;2024-02-26T04:11:14;6.50;99.90
71672;DHT22;67659;45.554;11.812;2024-02-26T04:13:44;6.60;99.90
71672;DHT22;67659;45.554;11.812;2024-02-26T04:16:15;6.60;99.90
71672;DHT22;67659;45.554;11.812;2024-02-26T04:18:42;6.80;99.90
71672;DHT22;67659;45.554;11.812;2024-02-26T04:21:08;6.70;99.90
71672;DHT22;67659;45.554;11.812;2024-02-26T04:23:34;6.80;99.90
71672;DHT22;67659;45.554;11.812;2024-02-26T04:26:00;6.70;99.90
71672;DHT22;67659;45.554;11.812;2024-02-26T04:28:25;6.70;99.90
71672;DHT22;67659;45.554;11.812;2024-02-26T04:30:54;6.90;99.90
71672;DHT22;67659;45.554;11.812;2024-02-26T04:33:20;6.80;99.90
71672;DHT22;67659;45.554;11.812;2024-02-26T04:35:46;6.90;99.90
71672;DHT22;67659;45.554;11.812;2024-02-26T04:38:12;6.90;99.90
71672;DHT22;67659;45.554;11.812;2024-02-26T04:40:38;6.80;99.90
71672;DHT22;67659;45.554;11.812;2024-02-26T04:43:04;6.80;99.90
71672;DHT22;67659;45.554;11.812;2024-02-26T04:45:30;6.60;99.90
71672;DHT22;67659;45.554;11.812;2024-02-26T04:47:56;6.90;99.90
71672;DHT22;67659;45.554;11.812;2024-02-26T04:50:22;6.70;99.90
71672;DHT22;67659;45.554;11.812;2024-02-26T04:52:48;6.90;99.90
71672;DHT22;67659;45.554;11.812;2024-02-26T04:55:13;6.90;99.90
71672;DHT22;67659;45.554;11.812;2024-02-26T04:57:39;7.10;99.90
71672;DHT22;67659;45.554;11.812;2024-02-26T05:00:06;7.00;99.90
71672;DHT22;67659;45.554;11.812;2024-02-26T05:02:32;7.20;99.90
71672;DHT22;67659;45.554;11.812;2024-02-26T05:05:05;7.20;99.90
71672;DHT22;67659;45.554;11.812;2024-02-26T05:07:30;7.20;99.90
71672;DHT22;67659;45.554;11.812;2024-02-26T05:09:56;7.20;99.90
71672;DHT22;67659;45.554;11.812;2024-02-26T05:12:22;7.30;99.90
71672;DHT22;67659;45.554;11.812;2024-02-26T05:14:48;7.30;99.90
71672;DHT22;67659;45.554;11.812;2024-02-26T05:17:14;7.30;99.90
71672;DHT22;67659;45.554;11.812;2024-02-26T05:19:40;7.30;99.90
71672;DHT22;67659;45.554;11.812;2024-02-26T05:22:06;7.30;99.90
71672;DHT22;67659;45.554;11.812;2024-02-26T05:24:32;7.30;99.90
71672;DHT22;67659;45.554;11.812;2024-02-26T05:26:59;7.40;99.90
71672;DHT22;67659;45.554;11.812;2024-02-26T05:29:25;7.30;99.90
71672;DHT22;67659;45.554;11.812;2024-02-26T05:31:51;7.30;99.90
71672;DHT22;67659;45.554;11.812;2024-02-26T05:34:19;7.40;99.90
71672;DHT22;67659;45.554;11.812;2024-02-26T05:36:45;7.30;99.90
71672;DHT22;67659;45.554;11.812;2024-02-26T05:39:12;7.30;99.90
71672;DHT22;67659;45.554;11.812;2024-02-26T05:41:38;7.50;99.90
71672;DHT22;67659;45.554;11.812;2024-02-26T05:44:04;7.50;99.90
71672;DHT22;67659;45.554;11.812;2024-02-26T05:46:30;7.40;99.90
71672;DHT22;67659;45.554;11.812;2024-02-26T05:48:55;7.60;99.90
71672;DHT22;67659;45.554;11.812;2024-02-26T05:51:21;7.50;99.90
71672;DHT22;67659;45.554;11.812;2024-02-26T05:53:47;7.40;99.90
71672;DHT22;67659;45.554;11.812;2024-02-26T05:56:19;7.60;99.90
71672;DHT22;67659;45.554;11.812;2024-02-26T05:58:46;7.60;99.90
71672;DHT22;67659;45.554;11.812;2024-02-26T06:01:12;7.50;99.90
71672;DHT22;67659;45.554;11.812;2024-02-26T06:03:38;7.50;99.90
71672;DHT22;67659;45.554;11.812;2024-02-26T06:06:04;7.50;99.90
71672;DHT22;67659;45.554;11.812;2024-02-26T06:08:30;7.60;99.90
71672;DHT22;67659;45.554;11.812;2024-02-26T06:10:56;7.30;99.90
71672;DHT22;67659;45.554;11.812;2024-02-26T06:13:22;7.10;99.90
71672;DHT22;67659;45.554;11.812;2024-02-26T06:15:48;7.20;99.90
71672;DHT22;67659;45.554;11.812;2024-02-26T06:18:14;7.30;99.90
71672;DHT22;67659;45.554;11.812;2024-02-26T06:20:40;7.30;99.90
71672;DHT22;67659;45.554;11.812;2024-02-26T06:23:06;7.30;99.90
71672;DHT22;67659;45.554;11.812;2024-02-26T06:25:32;7.20;99.90
71672;DHT22;67659;45.554;11.812;2024-02-26T06:27:58;7.10;99.90
71672;DHT22;67659;45.554;11.812;2024-02-26T06:30:24;7.00;99.90
71672;DHT22;67659;45.554;11.812;2024-02-26T06:32:50;7.00;99.90
71672;DHT22;67659;45.554;11.812;2024-02-26T06:35:16;7.10;99.90
71672;DHT22;67659;45.554;11.812;2024-02-26T06:37:42;7.30;99.90
71672;DHT22;67659;45.554;11.812;2024-02-26T06:40:08;7.60;99.90
71672;DHT22;67659;45.554;11.812;2024-02-26T06:42:34;7.80;99.90
71672;DHT22;67659;45.554;11.812;2024-02-26T06:45:00;8.00;99.90
71672;DHT22;67659;45.554;11.812;2024-02-26T06:47:26;8.20;99.90
71672;DHT22;67659;45.554;11.812;2024-02-26T06:49:52;8.40;99.90
71672;DHT22;67659;45.554;11.812;2024-02-26T06:52:18;8.60;99.90
71672;DHT22;67659;45.554;11.812;2024-02-26T06:54:44;8.80;99.90
71672;DHT22;67659;45.554;11.812;2024-02-26T06:57:11;8.70;99.90
71672;DHT22;67659;45.554;11.812;2024-02-26T06:59:37;8.80;99.90
71672;DHT22;67659;45.554;11.812;2024-02-26T07:02:03;9.10;99.90
71672;DHT22;67659;45.554;11.812;2024-02-26T07:04:29;9.10;99.90
71672;DHT22;67659;45.554;11.812;2024-02-26T07:06:57;9.30;99.90
71672;DHT22;67659;45.554;11.812;2024-02-26T07:09:22;9.40;99.90
71672;DHT22;67659;45.554;11.812;2024-02-26T07:11:48;9.50;99.90
71672;DHT22;67659;45.554;11.812;2024-02-26T07:14:14;9.50;99.90
71672;DHT22;67659;45.554;11.812;2024-02-26T07:16:40;9.60;99.90
71672;DHT22;67659;45.554;11.812;2024-02-26T07:19:06;9.60;99.90
71672;DHT22;67659;45.554;11.812;2024-02-26T07:21:32;9.70;99.90
71672;DHT22;67659;45.554;11.812;2024-02-26T07:23:59;9.50;99.90
71672;DHT22;67659;45.554;11.812;2024-02-26T07:26:25;9.50;99.90
71672;DHT22;67659;45.554;11.812;2024-02-26T07:28:51;9.50;99.90
71672;DHT22;67659;45.554;11.812;2024-02-26T07:31:17;9.50;99.90
71672;DHT22;67659;45.554;11.812;2024-02-26T07:33:43;9.50;99.90
71672;DHT22;67659;45.554;11.812;2024-02-26T07:36:09;9.50;99.90
71672;DHT22;67659;45.554;11.812;2024-02-26T07:38:35;9.50;99.90
71672;DHT22;67659;45.554;11.812;2024-02-26T07:41:03;9.50;99.90
71672;DHT22;67659;45.554;11.812;2024-02-26T07:43:29;9.40;99.90
71672;DHT22;67659;45.554;11.812;2024-02-26T07:45:55;9.50;99.90
71672;DHT22;67659;45.554;11.812;2024-02-26T07:48:21;9.40;99.90
71672;DHT22;67659;45.554;11.812;2024-02-26T07:50:47;9.50;99.90
71672;DHT22;67659;45.554;11.812;2024-02-26T07:53:13;9.40;99.90
71672;DHT22;67659;45.554;11.812;2024-02-26T07:55:39;9.50;99.90
71672;DHT22;67659;45.554;11.812;2024-02-26T07:58:06;9.50;99.90
71672;DHT22;67659;45.554;11.812;2024-02-26T08:00:32;9.60;99.90
71672;DHT22;67659;45.554;11.812;2024-02-26T08:02:58;9.60;99.90
71672;DHT22;67659;45.554;11.812;2024-02-26T08:05:24;9.70;99.90
71672;DHT22;67659;45.554;11.812;2024-02-26T08:07:51;9.90;99.90
71672;DHT22;67659;45.554;11.812;2024-02-26T08:10:16;9.90;99.90
71672;DHT22;67659;45.554;11.812;2024-02-26T08:12:42;10.00;99.90
71672;DHT22;67659;45.554;11.812;2024-02-26T08:15:08;10.00;99.90
71672;DHT22;67659;45.554;11.812;2024-02-26T08:17:35;10.00;99.90
71672;DHT22;67659;45.554;11.812;2024-02-26T08:20:02;10.10;99.90
71672;DHT22;67659;45.554;11.812;2024-02-26T08:22:28;10.00;99.90
71672;DHT22;67659;45.554;11.812;2024-02-26T08:24:54;10.00;99.90
71672;DHT22;67659;45.554;11.812;2024-02-26T08:27:19;10.10;99.90
71672;DHT22;67659;45.554;11.812;2024-02-26T08:29:45;10.30;99.90
71672;DHT22;67659;45.554;11.812;2024-02-26T08:32:11;10.20;99.90
71672;DHT22;67659;45.554;11.812;2024-02-26T08:34:37;10.30;99.90
71672;DHT22;67659;45.554;11.812;2024-02-26T08:37:03;10.40;99.90
71672;DHT22;67659;45.554;11.812;2024-02-26T08:39:29;10.40;99.90
71672;DHT22;67659;45.554;11.812;2024-02-26T08:41:55;10.70;99.90
71672;DHT22;67659;45.554;11.812;2024-02-26T08:44:21;10.90;99.90
71672;DHT22;67659;45.554;11.812;2024-02-26T08:46:47;10.80;99.90
71672;DHT22;67659;45.554;11.812;2024-02-26T08:49:13;10.90;99.90
71672;DHT22;67659;45.554;11.812;2024-02-26T08:51:42;10.90;99.90
71672;DHT22;67659;45.554;11.812;2024-02-26T08:54:09;10.80;99.90
71672;DHT22;67659;45.554;11.812;2024-02-26T08:56:35;10.90;99.90
71672;DHT22;67659;45.554;11.812;2024-02-26T08:59:01;10.90;99.90
71672;DHT22;67659;45.554;11.812;2024-02-26T09:01:31;11.10;99.90
71672;DHT22;67659;45.554;11.812;2024-02-26T09:03:57;11.20;99.90
71672;DHT22;67659;45.554;11.812;2024-02-26T09:06:23;11.20;99.90
71672;DHT22;67659;45.554;11.812;2024-02-26T09:08:49;11.30;99.90
71672;DHT22;67659;45.554;11.812;2024-02-26T09:11:15;11.30;99.90
71672;DHT22;67659;45.554;11.812;2024-02-26T09:13:41;11.40;99.90
71672;DHT22;67659;45.554;11.812;2024-02-26T09:16:07;11.40;99.90
71672;DHT22;67659;45.554;11.812;2024-02-26T09:18:33;11.40;99.90
71672;DHT22;67659;45.554;11.812;2024-02-26T09:20:59;11.20;99.90
71672;DHT22;67659;45.554;11.812;2024-02-26T09:23:25;11.50;99.90
71672;DHT22;67659;45.554;11.812;2024-02-26T09:25:51;11.40;99.90
71672;DHT22;67659;45.554;11.812;2024-02-26T09:28:17;11.70;99.90
71672;DHT22;67659;45.554;11.812;2024-02-26T09:30:44;12.30;99.90
71672;DHT22;67659;45.554;11.812;2024-02-26T09:33:09;12.50;99.90
71672;DHT22;67659;45.554;11.812;2024-02-26T09:35:36;13.00;99.90
71672;DHT22;67659;45.554;11.812;2024-02-26T09:38:02;13.10;99.90
71672;DHT22;67659;45.554;11.812;2024-02-26T09:40:28;13.10;99.90
71672;DHT22;67659;45.554;11.812;2024-02-26T09:42:59;13.30;99.90
71672;DHT22;67659;45.554;11.812;2024-02-26T09:45:26;13.20;99.90
71672;DHT22;67659;45.554;11.812;2024-02-26T09:47:55;13.30;99.90
71672;DHT22;67659;45.554;11.812;2024-02-26T09:50:22;13.30;99.90
71672;DHT22;67659;45.554;11.812;2024-02-26T09:52:51;13.20;99.90
71672;DHT22;67659;45.554;11.812;2024-02-26T09:55:17;13.30;99.90
71672;DHT22;67659;45.554;11.812;2024-02-26T09:57:48;13.30;99.90
71672;DHT22;67659;45.554;11.812;2024-02-26T10:00:21;13.40;99.90
71672;DHT22;67659;45.554;11.812;2024-02-26T10:02:48;13.70;99.90
71672;DHT22;67659;45.554;11.812;2024-02-26T10:05:18;13.50;99.90
71672;DHT22;67659;45.554;11.812;2024-02-26T10:07:48;13.60;99.90
71672;DHT22;67659;45.554;11.812;2024-02-26T10:10:14;13.60;99.90
71672;DHT22;67659;45.554;11.812;2024-02-26T10:12:40;13.60;99.90
71672;DHT22;67659;45.554;11.812;2024-02-26T10:15:06;13.50;99.90
71672;DHT22;67659;45.554;11.812;2024-02-26T10:17:32;13.40;99.90
71672;DHT22;67659;45.554;11.812;2024-02-26T10:20:16;13.30;99.90
71672;DHT22;67659;45.554;11.812;2024-02-26T10:22:44;13.30;99.90
71672;DHT22;67659;45.554;11.812;2024-02-26T10:25:10;13.10;99.90
71672;DHT22;67659;45.554;11.812;2024-02-26T10:27:36;13.20;99.90
71672;DHT22;67659;45.554;11.812;2024-02-26T10:30:16;13.20;99.90
71672;DHT22;67659;45.554;11.812;2024-02-26T10:32:47;13.30;99.90
71672;DHT22;67659;45.554;11.812;2024-02-26T10:35:15;13.30;99.90
71672;DHT22;67659;45.554;11.812;2024-02-26T10:37:42;13.30;99.90
71672;DHT22;67659;45.554;11.812;2024-02-26T10:40:15;13.40;99.90
71672;DHT22;67659;45.554;11.812;2024-02-26T10:42:42;13.20;99.90
71672;DHT22;67659;45.554;11.812;2024-02-26T10:45:09;13.20;99.90
71672;DHT22;67659;45.554;11.812;2024-02-26T10:47:36;13.30;99.90
71672;DHT22;67659;45.554;11.812;2024-02-26T10:50:03;13.40;99.90
71672;DHT22;67659;45.554;11.812;2024-02-26T10:52:32;13.70;99.90
71672;DHT22;67659;45.554;11.812;2024-02-26T10:55:04;13.80;99.90
71672;DHT22;67659;45.554;11.812;2024-02-26T10:57:43;13.90;99.90
71672;DHT22;67659;45.554;11.812;2024-02-26T11:00:13;13.70;99.90
71672;DHT22;67659;45.554;11.812;2024-02-26T11:02:44;13.60;99.90
71672;DHT22;67659;45.554;11.812;2024-02-26T11:05:11;13.80;99.90
71672;DHT22;67659;45.554;11.812;2024-02-26T11:07:37;13.90;99.90
71672;DHT22;67659;45.554;11.812;2024-02-26T11:10:05;14.10;99.90
71672;DHT22;67659;45.554;11.812;2024-02-26T11:12:33;14.40;99.90
71672;DHT22;67659;45.554;11.812;2024-02-26T11:15:03;14.30;99.90
71672;DHT22;67659;45.554;11.812;2024-02-26T11:17:29;14.40;99.90
71672;DHT22;67659;45.554;11.812;2024-02-26T11:19:59;14.70;99.90
71672;DHT22;67659;45.554;11.812;2024-02-26T11:22:25;14.50;99.90
71672;DHT22;67659;45.554;11.812;2024-02-26T11:24:55;14.50;99.90
71672;DHT22;67659;45.554;11.812;2024-02-26T11:27:35;14.80;99.90
71672;DHT22;67659;45.554;11.812;2024-02-26T11:30:03;15.00;99.90
71672;DHT22;67659;45.554;11.812;2024-02-26T11:32:31;14.70;99.90
71672;DHT22;67659;45.554;11.812;2024-02-26T11:34:58;14.50;99.90
71672;DHT22;67659;45.554;11.812;2024-02-26T11:37:24;14.40;99.90
71672;DHT22;67659;45.554;11.812;2024-02-26T11:39:52;14.10;99.90
71672;DHT22;67659;45.554;11.812;2024-02-26T11:42:23;13.90;99.90
71672;DHT22;67659;45.554;11.812;2024-02-26T11:44:50;14.00;99.90
71672;DHT22;67659;45.554;11.812;2024-02-26T11:47:21;14.00;99.90
71672;DHT22;67659;45.554;11.812;2024-02-26T11:49:47;14.00;99.90
71672;DHT22;67659;45.554;11.812;2024-02-26T11:52:14;13.90;99.90
71672;DHT22;67659;45.554;11.812;2024-02-26T11:54:53;14.00;99.90
71672;DHT22;67659;45.554;11.812;2024-02-26T11:57:29;13.80;99.90
71672;DHT22;67659;45.554;11.812;2024-02-26T11:59:56;13.80;99.90
71672;DHT22;67659;45.554;11.812;2024-02-26T12:02:44;13.80;99.90
71672;DHT22;67659;45.554;11.812;2024-02-26T12:07:49;13.70;99.90
71672;DHT22;67659;45.554;11.812;2024-02-26T12:13:00;14.10;99.90
71672;DHT22;67659;45.554;11.812;2024-02-26T12:15:32;14.00;99.90
71672;DHT22;67659;45.554;11.812;2024-02-26T12:18:01;13.90;99.90
71672;DHT22;67659;45.554;11.812;2024-02-26T12:20:28;14.10;99.90
71672;DHT22;67659;45.554;11.812;2024-02-26T12:22:54;14.00;99.90
71672;DHT22;67659;45.554;11.812;2024-02-26T12:25:25;14.10;99.90
71672;DHT22;67659;45.554;11.812;2024-02-26T12:27:55;14.10;99.90
71672;DHT22;67659;45.554;11.812;2024-02-26T12:30:22;14.10;99.90
71672;DHT22;67659;45.554;11.812;2024-02-26T12:32:52;14.40;99.90
71672;DHT22;67659;45.554;11.812;2024-02-26T12:35:18;14.30;99.90
71672;DHT22;67659;45.554;11.812;2024-02-26T12:37:44;14.10;99.90
71672;DHT22;67659;45.554;11.812;2024-02-26T12:40:11;14.20;99.90
71672;DHT22;67659;45.554;11.812;2024-02-26T12:42:37;14.30;99.90
71672;DHT22;67659;45.554;11.812;2024-02-26T12:45:08;14.20;99.90
71672;DHT22;67659;45.554;11.812;2024-02-26T12:47:36;14.00;99.90
71672;DHT22;67659;45.554;11.812;2024-02-26T12:50:03;14.10;99.90
71672;DHT22;67659;45.554;11.812;2024-02-26T12:52:33;14.20;99.90
71672;DHT22;67659;45.554;11.812;2024-02-26T12:55:01;14.40;99.90
71672;DHT22;67659;45.554;11.812;2024-02-26T12:57:31;14.40;99.90
71672;DHT22;67659;45.554;11.812;2024-02-26T12:59:59;14.40;99.90
71672;DHT22;67659;45.554;11.812;2024-02-26T13:02:26;14.50;99.90
71672;DHT22;67659;45.554;11.812;2024-02-26T13:04:53;14.50;99.90
71672;DHT22;67659;45.554;11.812;2024-02-26T13:07:20;14.60;99.90
71672;DHT22;67659;45.554;11.812;2024-02-26T13:09:46;14.50;99.90
71672;DHT22;67659;45.554;11.812;2024-02-26T13:12:12;14.20;99.90
71672;DHT22;67659;45.554;11.812;2024-02-26T13:14:39;14.30;99.90
71672;DHT22;67659;45.554;11.812;2024-02-26T13:17:05;14.30;99.90
71672;DHT22;67659;45.554;11.812;2024-02-26T13:19:31;14.20;99.90
71672;DHT22;67659;45.554;11.812;2024-02-26T13:22:03;14.20;99.90
71672;DHT22;67659;45.554;11.812;2024-02-26T13:24:30;14.10;99.90
71672;DHT22;67659;45.554;11.812;2024-02-26T13:26:56;14.10;99.90
71672;DHT22;67659;45.554;11.812;2024-02-26T13:29:22;14.10;99.90
71672;DHT22;67659;45.554;11.812;2024-02-26T13:31:55;14.00;99.90
71672;DHT22;67659;45.554;11.812;2024-02-26T13:34:23;14.00;99.90
71672;DHT22;67659;45.554;11.812;2024-02-26T13:36:50;13.90;99.90
71672;DHT22;67659;45.554;11.812;2024-02-26T13:39:25;13.90;99.90
71672;DHT22;67659;45.554;11.812;2024-02-26T13:41:51;13.70;99.90
71672;DHT22;67659;45.554;11.812;2024-02-26T13:44:18;13.70;99.90
71672;DHT22;67659;45.554;11.812;2024-02-26T13:46:44;13.60;99.90
71672;DHT22;67659;45.554;11.812;2024-02-26T13:49:10;13.60;99.90
71672;DHT22;67659;45.554;11.812;2024-02-26T13:51:38;13.50;99.90
71672;DHT22;67659;45.554;11.812;2024-02-26T13:54:03;13.50;99.90
71672;DHT22;67659;45.554;11.812;2024-02-26T13:56:30;13.40;99.90
71672;DHT22;67659;45.554;11.812;2024-02-26T13:58:56;13.20;99.90
71672;DHT22;67659;45.554;11.812;2024-02-26T14:01:22;13.30;99.90
71672;DHT22;67659;45.554;11.812;2024-02-26T14:03:48;13.40;99.90
71672;DHT22;67659;45.554;11.812;2024-02-26T14:06:14;13.30;99.90
71672;DHT22;67659;45.554;11.812;2024-02-26T14:08:40;13.40;99.90
71672;DHT22;67659;45.554;11.812;2024-02-26T14:11:06;13.40;99.90
71672;DHT22;67659;45.554;11.812;2024-02-26T14:13:32;13.40;99.90
71672;DHT22;67659;45.554;11.812;2024-02-26T14:15:58;13.30;99.90
71672;DHT22;67659;45.554;11.812;2024-02-26T14:18:24;13.20;99.90
71672;DHT22;67659;45.554;11.812;2024-02-26T14:20:50;13.40;99.90
71672;DHT22;67659;45.554;11.812;2024-02-26T14:23:17;13.30;99.90
71672;DHT22;67659;45.554;11.812;2024-02-26T14:25:42;13.20;99.90
71672;DHT22;67659;45.554;11.812;2024-02-26T14:28:09;13.20;99.90
71672;DHT22;67659;45.554;11.812;2024-02-26T14:30:35;13.00;99.90
71672;DHT22;67659;45.554;11.812;2024-02-26T14:33:00;13.10;99.90
71672;DHT22;67659;45.554;11.812;2024-02-26T14:35:26;13.20;99.90
71672;DHT22;67659;45.554;11.812;2024-02-26T14:37:52;13.10;99.90
71672;DHT22;67659;45.554;11.812;2024-02-26T14:40:19;13.20;99.90
71672;DHT22;67659;45.554;11.812;2024-02-26T14:42:45;13.20;99.90
71672;DHT22;67659;45.554;11.812;2024-02-26T14:45:11;13.20;99.90
71672;DHT22;67659;45.554;11.812;2024-02-26T14:47:37;13.10;99.90
71672;DHT22;67659;45.554;11.812;2024-02-26T14:50:03;13.00;99.90
71672;DHT22;67659;45.554;11.812;2024-02-26T14:52:29;13.00;99.90
71672;DHT22;67659;45.554;11.812;2024-02-26T14:54:55;12.80;99.90
71672;DHT22;67659;45.554;11.812;2024-02-26T14:57:21;12.80;99.90
71672;DHT22;67659;45.554;11.812;2024-02-26T14:59:47;12.90;99.90
71672;DHT22;67659;45.554;11.812;2024-02-26T15:02:13;12.80;99.90
71672;DHT22;67659;45.554;11.812;2024-02-26T15:04:39;12.70;99.90
71672;DHT22;67659;45.554;11.812;2024-02-26T15:07:05;12.50;99.90
71672;DHT22;67659;45.554;11.812;2024-02-26T15:09:31;12.50;99.90
71672;DHT22;67659;45.554;11.812;2024-02-26T15:11:57;12.50;99.90
71672;DHT22;67659;45.554;11.812;2024-02-26T15:14:23;12.40;99.90
71672;DHT22;67659;45.554;11.812;2024-02-26T15:16:51;12.30;99.90
71672;DHT22;67659;45.554;11.812;2024-02-26T15:19:17;12.40;99.90
71672;DHT22;67659;45.554;11.812;2024-02-26T15:21:47;12.20;99.90
71672;DHT22;67659;45.554;11.812;2024-02-26T15:24:13;12.30;99.90
71672;DHT22;67659;45.554;11.812;2024-02-26T15:26:42;12.40;99.90
71672;DHT22;67659;45.554;11.812;2024-02-26T15:29:08;12.40;99.90